Time;durP1;ratioP1;P1;durP2;ratioP2;P2;SDS_P1;SDS_P2;PMS_P1;PMS_P2;Temp;Humidity;BMP_temperature;BMP_pressure;BME280_temperature;BME280_humidity;BME280_pressure;Samples;Min_cycle;Max_cycle;Signal;HPM_P1;HPM_P2
2022/03/27 00:00:18;;;;;;;24.77;19.70;;;;;;;;;;2097700;28;20187;-64
2022/03/27 00:01:18;;;;;;;23.02;19.83;;;;;;;;;;2098392;28;20281;-63
2022/03/27 00:02:19;;;;;;;23.50;19.48;;;;;;;;;;2098639;28;20171;-64
2022/03/27 00:03:19;;;;;;;24.00;19.88;;;;;;;;;;2098529;28;20187;-66
2022/03/27 00:04:19;;;;;;;23.50;19.48;;;;;;;;;;2087926;28;20233;-63
2022/03/27 00:05:20;;;;;;;23.02;19.52;;;;;;;;;;2088213;28;20217;-62
2022/03/27 00:06:20;;;;;;;23.80;19.85;;;;;;;;;;2097460;28;20175;-64
2022/03/27 00:07:20;;;;;;;26.40;21.65;;;;;;;;;;2080005;28;20186;-64
2022/03/27 00:08:20;;;;;;;27.13;21.58;;;;;;;;;;2080499;28;20204;-64
2022/03/27 00:09:21;;;;;;;29.10;21.42;;;;;;;;;;2097417;28;20211;-64
2022/03/27 00:10:21;;;;;;;27.40;21.33;;;;;;;;;;2095916;28;20198;-64
2022/03/27 00:11:24;;;;;;;26.60;21.40;;;;;;;;;;2095331;22;20949;-55
2022/03/27 00:12:24;;;;;;;25.85;21.17;;;;;;;;;;2072284;28;20193;-55
2022/03/27 00:13:24;;;;;;;26.75;21.77;;;;;;;;;;2079614;28;20172;-58
2022/03/27 00:14:25;;;;;;;26.42;20.38;;;;;;;;;;2084595;28;20256;-58
2022/03/27 00:15:26;;;;;;;24.48;19.60;;;;;;;;;;2090648;28;20183;-59
2022/03/27 00:16:26;;;;;;;25.63;20.67;;;;;;;;;;2084519;28;20196;-62
2022/03/27 00:17:29;;;;;;;25.67;21.27;;;;;;;;;;2090073;28;20245;-59
2022/03/27 00:18:29;;;;;;;27.95;22.77;;;;;;;;;;2089925;28;20267;-60
2022/03/27 00:19:29;;;;;;;23.10;19.80;;;;;;;;;;2092028;28;20265;-56
2022/03/27 00:20:29;;;;;;;27.80;20.92;;;;;;;;;;2082587;28;20697;-57
2022/03/27 00:21:30;;;;;;;22.50;20.10;;;;;;;;;;2077588;28;20581;-56
2022/03/27 00:22:30;;;;;;;23.80;20.70;;;;;;;;;;2091948;28;20179;-57
2022/03/27 00:23:31;;;;;;;26.83;20.80;;;;;;;;;;2092222;28;20519;-59
2022/03/27 00:24:32;;;;;;;25.40;20.77;;;;;;;;;;2084792;28;20184;-54
2022/03/27 00:25:32;;;;;;;22.85;20.15;;;;;;;;;;2092203;28;20174;-56
2022/03/27 00:26:33;;;;;;;26.02;21.20;;;;;;;;;;2088472;28;20668;-58
2022/03/27 00:27:34;;;;;;;22.85;20.33;;;;;;;;;;2068584;28;20169;-55
2022/03/27 00:28:35;;;;;;;27.33;20.42;;;;;;;;;;2076053;28;20181;-64
2022/03/27 00:29:37;;;;;;;27.13;21.30;;;;;;;;;;2077126;28;20229;-58
2022/03/27 00:30:38;;;;;;;21.88;18.85;;;;;;;;;;2077614;28;20775;-59
2022/03/27 00:31:39;;;;;;;27.10;20.33;;;;;;;;;;2085022;28;20200;-56
2022/03/27 00:32:40;;;;;;;25.70;21.23;;;;;;;;;;2093537;28;20689;-59
2022/03/27 00:33:41;;;;;;;23.77;20.23;;;;;;;;;;2093975;28;20196;-55
2022/03/27 00:34:41;;;;;;;27.85;21.45;;;;;;;;;;2093945;28;20255;-56
2022/03/27 00:35:42;;;;;;;24.00;19.85;;;;;;;;;;2086866;28;20784;-56
2022/03/27 00:36:42;;;;;;;25.38;20.10;;;;;;;;;;2086152;28;20172;-58
2022/03/27 00:37:42;;;;;;;27.38;21.15;;;;;;;;;;2078586;28;20165;-58
2022/03/27 00:38:44;;;;;;;27.90;21.10;;;;;;;;;;2085628;28;20199;-60
2022/03/27 00:39:44;;;;;;;23.90;20.17;;;;;;;;;;2086548;28;20499;-58
2022/03/27 00:40:44;;;;;;;23.08;18.80;;;;;;;;;;2094294;28;20184;-59
2022/03/27 00:41:45;;;;;;;27.70;20.42;;;;;;;;;;2087080;28;20211;-57
2022/03/27 00:42:45;;;;;;;22.15;19.75;;;;;;;;;;2089394;28;20215;-58
2022/03/27 00:43:45;;;;;;;25.23;20.15;;;;;;;;;;2092625;28;20719;-57
2022/03/27 00:44:46;;;;;;;25.17;20.45;;;;;;;;;;2092526;28;20246;-59
2022/03/27 00:45:46;;;;;;;24.83;20.58;;;;;;;;;;2090186;28;20187;-59
2022/03/27 00:46:47;;;;;;;26.33;20.73;;;;;;;;;;2092487;28;20164;-56
2022/03/27 00:47:47;;;;;;;25.80;20.88;;;;;;;;;;2086424;28;20287;-58
2022/03/27 00:48:47;;;;;;;25.13;19.90;;;;;;;;;;2088197;28;20242;-56
2022/03/27 00:49:47;;;;;;;26.92;20.67;;;;;;;;;;2086335;28;20228;-56
2022/03/27 00:50:48;;;;;;;28.17;21.50;;;;;;;;;;2084643;28;20668;-58
2022/03/27 00:51:49;;;;;;;27.25;20.90;;;;;;;;;;2080555;28;20188;-58
2022/03/27 00:52:49;;;;;;;25.05;20.77;;;;;;;;;;2086186;28;20553;-56
2022/03/27 00:53:49;;;;;;;26.70;21.25;;;;;;;;;;2090104;28;20172;-59
2022/03/27 00:54:50;;;;;;;27.38;21.55;;;;;;;;;;2089435;28;20227;-58
2022/03/27 00:55:51;;;;;;;28.70;20.98;;;;;;;;;;2092611;28;20168;-56
2022/03/27 00:56:51;;;;;;;26.40;20.50;;;;;;;;;;2095296;28;20528;-56
2022/03/27 00:57:51;;;;;;;25.70;20.33;;;;;;;;;;2092409;28;20803;-58
2022/03/27 00:58:52;;;;;;;24.05;19.77;;;;;;;;;;2086167;28;20168;-56
2022/03/27 00:59:52;;;;;;;27.75;20.70;;;;;;;;;;2088639;28;20711;-55
2022/03/27 01:01:01;;;;;;;26.67;20.13;;;;;;;;;;2092435;28;20190;-56
2022/03/27 01:02:02;;;;;;;27.75;19.90;;;;;;;;;;2088569;28;20176;-56
2022/03/27 01:03:05;;;;;;;26.45;18.42;;;;;;;;;;2090252;28;20188;-57
2022/03/27 01:04:06;;;;;;;26.67;20.75;;;;;;;;;;2084537;28;20169;-56
2022/03/27 01:05:08;;;;;;;24.35;20.02;;;;;;;;;;2087459;28;20837;-56
2022/03/27 01:06:18;;;;;;;30.38;23.15;;;;;;;;;;2081727;28;20202;-55
2022/03/27 01:07:18;;;;;;;25.75;19.60;;;;;;;;;;2080660;28;20187;-57
2022/03/27 01:09:41;;;;;;;26.20;19.90;;;;;;;;;;2089829;28;20179;-53
2022/03/27 01:10:42;;;;;;;27.92;20.67;;;;;;;;;;2090068;28;20225;-56
2022/03/27 01:11:42;;;;;;;24.70;20.25;;;;;;;;;;2083753;28;20223;-55
2022/03/27 01:12:43;;;;;;;25.52;20.75;;;;;;;;;;2089872;28;20203;-53
2022/03/27 01:13:44;;;;;;;26.25;19.65;;;;;;;;;;2090673;28;20191;-54
2022/03/27 01:14:44;;;;;;;27.03;20.37;;;;;;;;;;2080417;28;20176;-54
2022/03/27 01:15:54;;;;;;;25.88;19.75;;;;;;;;;;2075013;28;20196;-53
2022/03/27 01:16:59;;;;;;;28.67;22.02;;;;;;;;;;2081390;28;20172;-54
2022/03/27 01:17:59;;;;;;;26.67;19.57;;;;;;;;;;2079074;28;20271;-54
2022/03/27 01:19:00;;;;;;;27.52;20.40;;;;;;;;;;2085962;28;20159;-56
2022/03/27 01:20:02;;;;;;;27.60;20.17;;;;;;;;;;2086024;28;20168;-56
2022/03/27 01:21:02;;;;;;;25.50;19.58;;;;;;;;;;2085969;28;20176;-54
2022/03/27 01:22:03;;;;;;;26.00;20.15;;;;;;;;;;2086404;28;20191;-57
2022/03/27 01:23:07;;;;;;;25.25;20.92;;;;;;;;;;2087508;28;20538;-54
2022/03/27 01:24:09;;;;;;;25.35;20.35;;;;;;;;;;2085235;28;20270;-56
2022/03/27 01:25:09;;;;;;;25.38;18.63;;;;;;;;;;2087087;28;20176;-56
2022/03/27 01:26:09;;;;;;;24.15;18.70;;;;;;;;;;2085446;28;20178;-52
2022/03/27 01:27:10;;;;;;;24.27;20.13;;;;;;;;;;2090459;28;20691;-57
2022/03/27 01:28:14;;;;;;;25.20;19.67;;;;;;;;;;2077211;28;20173;-55
2022/03/27 01:29:14;;;;;;;26.38;19.92;;;;;;;;;;2076245;28;20197;-56
2022/03/27 01:30:15;;;;;;;27.98;20.88;;;;;;;;;;2087295;28;20183;-57
2022/03/27 01:31:15;;;;;;;27.73;19.45;;;;;;;;;;2087699;28;20191;-57
2022/03/27 01:32:16;;;;;;;24.63;19.75;;;;;;;;;;2085011;28;20637;-53
2022/03/27 01:33:16;;;;;;;25.17;20.25;;;;;;;;;;2090399;28;20597;-53
2022/03/27 01:34:16;;;;;;;27.63;19.20;;;;;;;;;;2083875;28;20265;-53
2022/03/27 01:35:18;;;;;;;27.67;19.25;;;;;;;;;;2087826;28;20211;-54
2022/03/27 01:36:22;;;;;;;27.75;19.63;;;;;;;;;;2075605;28;20169;-53
2022/03/27 01:37:22;;;;;;;27.00;20.83;;;;;;;;;;2080259;28;20263;-58
2022/03/27 01:38:22;;;;;;;23.23;20.45;;;;;;;;;;2084008;28;20509;-58
2022/03/27 01:39:23;;;;;;;27.27;20.60;;;;;;;;;;2089300;28;20202;-57
2022/03/27 01:40:23;;;;;;;26.73;19.57;;;;;;;;;;2080424;28;20230;-55
2022/03/27 01:41:24;;;;;;;25.38;19.30;;;;;;;;;;2082195;28;20192;-53
2022/03/27 01:42:24;;;;;;;28.77;20.67;;;;;;;;;;2091489;28;20671;-54
2022/03/27 01:43:24;;;;;;;25.58;19.30;;;;;;;;;;2090910;28;20172;-53
2022/03/27 01:44:25;;;;;;;22.02;19.55;;;;;;;;;;2085017;28;20251;-55
2022/03/27 01:45:27;;;;;;;24.58;19.15;;;;;;;;;;2089663;28;20203;-55
2022/03/27 01:46:34;;;;;;;25.65;19.63;;;;;;;;;;2075535;28;20181;-56
2022/03/27 01:47:34;;;;;;;26.45;19.13;;;;;;;;;;2083519;28;20180;-56
2022/03/27 01:48:34;;;;;;;25.27;19.20;;;;;;;;;;2091604;28;20172;-56
2022/03/27 01:49:35;;;;;;;26.00;19.33;;;;;;;;;;2089018;28;20169;-56
2022/03/27 01:50:35;;;;;;;28.77;19.80;;;;;;;;;;2084038;28;20832;-55
2022/03/27 01:51:36;;;;;;;27.75;20.25;;;;;;;;;;2081981;28;20181;-58
2022/03/27 01:52:37;;;;;;;23.10;19.05;;;;;;;;;;2076473;28;20196;-55
2022/03/27 01:53:40;;;;;;;25.10;19.33;;;;;;;;;;2091162;28;20168;-56
2022/03/27 01:54:40;;;;;;;21.58;18.08;;;;;;;;;;2081910;28;20331;-58
2022/03/27 01:55:40;;;;;;;25.00;19.45;;;;;;;;;;2074503;28;20236;-57
2022/03/27 01:56:41;;;;;;;24.83;18.42;;;;;;;;;;2091250;28;20176;-57
2022/03/27 01:57:42;;;;;;;25.30;18.52;;;;;;;;;;2090910;28;20198;-56
2022/03/27 01:58:43;;;;;;;23.42;18.50;;;;;;;;;;2090405;28;20509;-54
2022/03/27 01:59:43;;;;;;;23.58;19.10;;;;;;;;;;2084052;28;20243;-54
2022/03/27 02:00:43;;;;;;;26.23;19.48;;;;;;;;;;2085061;28;20224;-52
2022/03/27 02:01:44;;;;;;;25.50;19.35;;;;;;;;;;2082363;28;20199;-53
2022/03/27 02:02:44;;;;;;;24.20;19.55;;;;;;;;;;2076224;28;20168;-55
2022/03/27 02:03:44;;;;;;;25.83;19.20;;;;;;;;;;2088630;28;20239;-53
2022/03/27 02:04:44;;;;;;;28.63;20.25;;;;;;;;;;2091847;28;20178;-57
2022/03/27 02:05:45;;;;;;;25.38;19.17;;;;;;;;;;2088126;28;20168;-55
2022/03/27 02:06:45;;;;;;;25.58;19.10;;;;;;;;;;2092351;28;20242;-57
2022/03/27 02:07:45;;;;;;;26.02;20.70;;;;;;;;;;2088556;28;20193;-55
2022/03/27 02:08:47;;;;;;;24.80;19.60;;;;;;;;;;2093684;28;20235;-56
2022/03/27 02:09:47;;;;;;;27.83;19.92;;;;;;;;;;2081207;28;20296;-56
2022/03/27 02:10:48;;;;;;;27.50;20.37;;;;;;;;;;2072230;28;20181;-56
2022/03/27 02:11:48;;;;;;;25.92;21.77;;;;;;;;;;2077057;28;20222;-54
2022/03/27 02:12:49;;;;;;;30.20;22.27;;;;;;;;;;2083733;28;20175;-56
2022/03/27 02:13:50;;;;;;;25.70;21.10;;;;;;;;;;2086197;28;20202;-57
2022/03/27 02:14:50;;;;;;;27.27;21.30;;;;;;;;;;2083385;28;20687;-57
2022/03/27 02:15:52;;;;;;;34.50;27.05;;;;;;;;;;2087464;28;20229;-56
2022/03/27 02:16:53;;;;;;;31.17;23.85;;;;;;;;;;2081386;28;20186;-52
2022/03/27 02:17:53;;;;;;;31.75;23.27;;;;;;;;;;2084478;28;20222;-58
2022/03/27 02:18:53;;;;;;;33.97;22.70;;;;;;;;;;2087282;28;20187;-56
2022/03/27 02:19:54;;;;;;;23.95;20.85;;;;;;;;;;2085942;28;20235;-56
2022/03/27 02:20:54;;;;;;;26.00;18.70;;;;;;;;;;2084285;28;20176;-53
2022/03/27 02:21:55;;;;;;;24.67;20.23;;;;;;;;;;2084436;28;20826;-54
2022/03/27 02:22:55;;;;;;;24.60;19.40;;;;;;;;;;2087131;28;20175;-57
2022/03/27 02:23:55;;;;;;;23.83;19.13;;;;;;;;;;2086883;28;20722;-59
2022/03/27 02:24:56;;;;;;;23.67;18.73;;;;;;;;;;2083859;28;20655;-57
2022/03/27 02:25:56;;;;;;;23.48;19.20;;;;;;;;;;2089682;28;20697;-57
2022/03/27 02:26:57;;;;;;;26.60;19.13;;;;;;;;;;2089807;28;20214;-52
2022/03/27 02:27:57;;;;;;;24.20;18.83;;;;;;;;;;2080637;28;20176;-54
2022/03/27 02:28:57;;;;;;;24.90;20.08;;;;;;;;;;2079258;28;20201;-54
2022/03/27 02:29:58;;;;;;;21.85;18.35;;;;;;;;;;2084642;28;20159;-54
2022/03/27 02:30:58;;;;;;;21.50;17.75;;;;;;;;;;2089132;28;20241;-57
2022/03/27 02:31:58;;;;;;;22.85;18.73;;;;;;;;;;2089957;28;20164;-56
2022/03/27 02:32:58;;;;;;;23.23;18.60;;;;;;;;;;2089328;28;20172;-54
2022/03/27 02:33:59;;;;;;;22.85;18.30;;;;;;;;;;2086876;28;20198;-55
2022/03/27 02:34:59;;;;;;;23.25;18.38;;;;;;;;;;2084842;28;20539;-54
2022/03/27 02:35:59;;;;;;;20.65;17.58;;;;;;;;;;2085992;28;20204;-58
2022/03/27 02:36:59;;;;;;;21.88;18.00;;;;;;;;;;2085591;28;20198;-53
2022/03/27 02:38:00;;;;;;;20.73;17.60;;;;;;;;;;2085982;28;20168;-55
2022/03/27 02:39:00;;;;;;;21.90;18.27;;;;;;;;;;2085379;28;20171;-57
2022/03/27 02:40:01;;;;;;;21.90;18.13;;;;;;;;;;2087255;28;20548;-55
2022/03/27 02:41:01;;;;;;;20.98;17.38;;;;;;;;;;2090094;28;20209;-53
2022/03/27 02:42:01;;;;;;;22.88;18.70;;;;;;;;;;2086697;28;20179;-54
2022/03/27 02:43:02;;;;;;;21.15;17.17;;;;;;;;;;2085464;28;20179;-56
2022/03/27 02:44:03;;;;;;;25.50;18.00;;;;;;;;;;2087398;28;20180;-54
2022/03/27 02:45:05;;;;;;;22.40;18.02;;;;;;;;;;2090129;28;20174;-56
2022/03/27 02:46:06;;;;;;;23.58;18.55;;;;;;;;;;2088693;28;20648;-56
2022/03/27 02:47:06;;;;;;;21.90;17.50;;;;;;;;;;2090441;28;20216;-53
2022/03/27 02:48:07;;;;;;;21.35;17.15;;;;;;;;;;2085813;28;20183;-54
2022/03/27 02:49:07;;;;;;;23.05;17.92;;;;;;;;;;2081989;28;20196;-57
2022/03/27 02:50:07;;;;;;;20.88;17.33;;;;;;;;;;2083529;28;20179;-56
2022/03/27 02:51:07;;;;;;;21.10;16.42;;;;;;;;;;2086487;28;20624;-53
2022/03/27 02:52:08;;;;;;;24.10;18.92;;;;;;;;;;2085856;28;20168;-55
2022/03/27 02:53:08;;;;;;;20.60;17.17;;;;;;;;;;2086322;28;20171;-56
2022/03/27 02:54:08;;;;;;;22.27;18.55;;;;;;;;;;2084128;28;20168;-55
2022/03/27 02:55:09;;;;;;;23.67;18.13;;;;;;;;;;2077715;28;20263;-55
2022/03/27 02:56:09;;;;;;;21.25;17.55;;;;;;;;;;2080300;28;20160;-53
2022/03/27 02:57:09;;;;;;;22.60;19.15;;;;;;;;;;2089499;28;20703;-56
2022/03/27 02:58:10;;;;;;;24.20;18.13;;;;;;;;;;2087620;28;20228;-55
2022/03/27 02:59:10;;;;;;;23.17;17.45;;;;;;;;;;2085227;28;20196;-57
2022/03/27 03:00:10;;;;;;;20.23;16.38;;;;;;;;;;2088356;28;20184;-51
2022/03/27 03:01:11;;;;;;;23.50;16.83;;;;;;;;;;2085178;28;20602;-55
2022/03/27 03:02:11;;;;;;;23.42;17.63;;;;;;;;;;2088813;28;20683;-52
2022/03/27 03:03:13;;;;;;;24.05;19.77;;;;;;;;;;2085080;28;20180;-52
2022/03/27 03:04:14;;;;;;;21.13;17.05;;;;;;;;;;2083000;28;20211;-55
2022/03/27 03:05:14;;;;;;;22.90;18.50;;;;;;;;;;2086737;28;20183;-57
2022/03/27 03:06:14;;;;;;;24.27;18.65;;;;;;;;;;2089157;28;20179;-56
2022/03/27 03:07:15;;;;;;;21.33;18.38;;;;;;;;;;2083865;28;20183;-51
2022/03/27 03:08:17;;;;;;;22.73;18.60;;;;;;;;;;2087276;28;20194;-54
2022/03/27 03:09:17;;;;;;;27.95;20.20;;;;;;;;;;2085255;28;20191;-55
2022/03/27 03:10:18;;;;;;;27.50;19.50;;;;;;;;;;2089896;28;20215;-55
2022/03/27 03:11:20;;;;;;;23.55;18.13;;;;;;;;;;2085494;28;20200;-55
2022/03/27 03:12:21;;;;;;;25.42;18.63;;;;;;;;;;2090135;28;20168;-54
2022/03/27 03:13:21;;;;;;;25.33;18.02;;;;;;;;;;2083663;28;20184;-54
2022/03/27 03:14:21;;;;;;;23.52;18.90;;;;;;;;;;2087467;28;20172;-55
2022/03/27 03:15:23;;;;;;;23.67;18.60;;;;;;;;;;2074753;28;20256;-56
2022/03/27 03:16:25;;;;;;;24.08;18.73;;;;;;;;;;2073141;28;20260;-53
2022/03/27 03:17:25;;;;;;;24.08;18.90;;;;;;;;;;2079106;28;20224;-54
2022/03/27 03:18:27;;;;;;;26.02;18.70;;;;;;;;;;2086591;28;20521;-53
2022/03/27 03:19:28;;;;;;;23.42;18.50;;;;;;;;;;2081180;28;20176;-55
2022/03/27 03:20:29;;;;;;;23.92;18.42;;;;;;;;;;2074248;28;20192;-59
2022/03/27 03:21:30;;;;;;;23.83;19.33;;;;;;;;;;2082868;28;20287;-54
2022/03/27 03:22:31;;;;;;;26.95;20.48;;;;;;;;;;2089890;28;20188;-55
2022/03/27 03:23:32;;;;;;;30.77;21.15;;;;;;;;;;2092053;28;20187;-56
2022/03/27 03:24:32;;;;;;;30.77;21.25;;;;;;;;;;2093388;28;20186;-55
2022/03/27 03:25:32;;;;;;;24.67;19.95;;;;;;;;;;2092954;28;20171;-57
2022/03/27 03:26:32;;;;;;;28.15;21.13;;;;;;;;;;2084934;28;20203;-57
2022/03/27 03:27:33;;;;;;;26.80;21.00;;;;;;;;;;2084663;28;20188;-55
2022/03/27 03:28:33;;;;;;;26.88;20.05;;;;;;;;;;2084031;28;20210;-54
2022/03/27 03:29:34;;;;;;;29.55;20.67;;;;;;;;;;2085050;28;20211;-57
2022/03/27 03:30:34;;;;;;;27.75;20.63;;;;;;;;;;2086140;28;20165;-58
2022/03/27 03:31:34;;;;;;;25.67;19.80;;;;;;;;;;2093958;28;20187;-56
2022/03/27 03:32:36;;;;;;;26.13;20.48;;;;;;;;;;2093994;28;20199;-52
2022/03/27 03:33:37;;;;;;;27.48;20.50;;;;;;;;;;2085908;28;20195;-54
2022/03/27 03:34:37;;;;;;;28.83;20.77;;;;;;;;;;2093475;28;20214;-56
2022/03/27 03:35:39;;;;;;;25.23;20.15;;;;;;;;;;2084000;28;20175;-56
2022/03/27 03:36:41;;;;;;;27.45;20.50;;;;;;;;;;2074570;28;20177;-54
2022/03/27 03:37:41;;;;;;;27.77;20.60;;;;;;;;;;2080963;28;20246;-56
2022/03/27 03:38:42;;;;;;;29.73;20.42;;;;;;;;;;2088373;28;20671;-55
2022/03/27 03:39:42;;;;;;;27.08;20.77;;;;;;;;;;2088374;28;20171;-57
2022/03/27 03:40:42;;;;;;;29.38;20.60;;;;;;;;;;2082469;28;20655;-57
2022/03/27 03:41:43;;;;;;;28.40;22.05;;;;;;;;;;2088118;28;20199;-55
2022/03/27 03:42:43;;;;;;;29.52;22.40;;;;;;;;;;2082635;28;20166;-53
2022/03/27 03:43:43;;;;;;;29.13;21.67;;;;;;;;;;2080149;28;20165;-56
2022/03/27 03:44:44;;;;;;;28.55;21.30;;;;;;;;;;2080001;28;20168;-53
2022/03/27 03:45:46;;;;;;;26.42;20.85;;;;;;;;;;2089043;28;20225;-52
2022/03/27 03:46:48;;;;;;;25.30;19.20;;;;;;;;;;2089085;28;20621;-57
2022/03/27 03:47:48;;;;;;;27.85;21.50;;;;;;;;;;2087741;28;20183;-55
2022/03/27 03:48:48;;;;;;;25.80;19.80;;;;;;;;;;2086994;28;20206;-52
2022/03/27 03:49:49;;;;;;;28.40;21.55;;;;;;;;;;2087004;28;20167;-53
2022/03/27 03:50:49;;;;;;;25.88;20.70;;;;;;;;;;2084141;28;20168;-56
2022/03/27 03:51:49;;;;;;;28.98;22.50;;;;;;;;;;2087197;28;20164;-53
2022/03/27 03:52:49;;;;;;;30.52;21.85;;;;;;;;;;2089063;28;20524;-55
2022/03/27 03:53:50;;;;;;;26.52;20.73;;;;;;;;;;2087933;28;20216;-55
2022/03/27 03:54:50;;;;;;;29.25;22.05;;;;;;;;;;2087023;28;20201;-53
2022/03/27 03:55:50;;;;;;;30.25;21.33;;;;;;;;;;2089765;28;20179;-53
2022/03/27 03:56:51;;;;;;;26.40;20.83;;;;;;;;;;2087210;28;20180;-53
2022/03/27 03:57:52;;;;;;;28.92;21.38;;;;;;;;;;2074831;28;20168;-53
2022/03/27 03:58:52;;;;;;;29.42;21.33;;;;;;;;;;2072752;28;20184;-54
2022/03/27 03:59:52;;;;;;;30.65;23.30;;;;;;;;;;2081129;28;20176;-54
2022/03/27 04:00:52;;;;;;;28.70;22.13;;;;;;;;;;2089710;28;20659;-55
2022/03/27 04:01:53;;;;;;;33.75;23.60;;;;;;;;;;2091590;28;20549;-53
2022/03/27 04:02:53;;;;;;;30.48;23.40;;;;;;;;;;2074242;28;20269;-58
2022/03/27 04:03:54;;;;;;;29.85;21.52;;;;;;;;;;2073893;28;20177;-56
2022/03/27 04:04:54;;;;;;;31.60;22.13;;;;;;;;;;2088618;28;20178;-56
2022/03/27 04:05:54;;;;;;;30.20;22.15;;;;;;;;;;2085826;28;20168;-53
2022/03/27 04:06:55;;;;;;;34.83;23.05;;;;;;;;;;2082626;28;20180;-55
2022/03/27 04:07:55;;;;;;;28.90;21.52;;;;;;;;;;2082586;28;20169;-53
2022/03/27 04:08:55;;;;;;;30.70;22.63;;;;;;;;;;2091572;28;20199;-55
2022/03/27 04:09:56;;;;;;;28.48;21.70;;;;;;;;;;2082528;28;20579;-53
2022/03/27 04:10:56;;;;;;;27.77;21.50;;;;;;;;;;2082838;28;20513;-57
2022/03/27 04:11:56;;;;;;;30.58;22.45;;;;;;;;;;2091085;28;20176;-56
2022/03/27 04:12:57;;;;;;;27.38;21.27;;;;;;;;;;2091273;28;20237;-54
2022/03/27 04:13:57;;;;;;;26.92;20.35;;;;;;;;;;2091017;28;20223;-57
2022/03/27 04:14:57;;;;;;;33.17;22.80;;;;;;;;;;2091093;28;20172;-53
2022/03/27 04:15:58;;;;;;;29.33;21.65;;;;;;;;;;2091546;28;20214;-52
2022/03/27 04:16:58;;;;;;;27.67;21.70;;;;;;;;;;2091248;28;20179;-53
2022/03/27 04:18:00;;;;;;;31.55;22.83;;;;;;;;;;2091498;28;20171;-55
2022/03/27 04:19:00;;;;;;;29.55;22.52;;;;;;;;;;2082291;28;20181;-56
2022/03/27 04:20:01;;;;;;;28.98;21.30;;;;;;;;;;2074101;28;20172;-54
2022/03/27 04:21:01;;;;;;;29.05;20.50;;;;;;;;;;2074090;28;20650;-53
2022/03/27 04:22:01;;;;;;;27.70;20.95;;;;;;;;;;2082498;28;20184;-54
2022/03/27 04:23:02;;;;;;;30.00;21.30;;;;;;;;;;2091309;28;20203;-56
2022/03/27 04:24:02;;;;;;;25.95;20.10;;;;;;;;;;2091076;28;20175;-54
2022/03/27 04:25:03;;;;;;;26.70;21.48;;;;;;;;;;2091299;28;20168;-54
2022/03/27 04:26:03;;;;;;;27.65;20.42;;;;;;;;;;2082614;28;20177;-59
2022/03/27 04:27:04;;;;;;;26.57;21.60;;;;;;;;;;2082441;28;20565;-53
2022/03/27 04:28:05;;;;;;;27.88;20.02;;;;;;;;;;2091595;28;20184;-54
2022/03/27 04:29:05;;;;;;;28.38;19.73;;;;;;;;;;2091300;28;20195;-55
2022/03/27 04:30:10;;;;;;;26.63;21.13;;;;;;;;;;2091316;28;20167;-55
2022/03/27 04:31:10;;;;;;;27.17;20.52;;;;;;;;;;2091710;28;20561;-55
2022/03/27 04:32:10;;;;;;;25.02;19.58;;;;;;;;;;2090514;28;20172;-53
2022/03/27 04:33:10;;;;;;;28.93;20.57;;;;;;;;;;2091253;28;20176;-57
2022/03/27 04:34:11;;;;;;;26.40;20.83;;;;;;;;;;2091575;28;20213;-54
2022/03/27 04:35:11;;;;;;;24.87;19.87;;;;;;;;;;2087206;28;20207;-56
2022/03/27 04:36:11;;;;;;;26.50;20.00;;;;;;;;;;2091119;28;20179;-58
2022/03/27 04:37:12;;;;;;;27.57;20.53;;;;;;;;;;2086294;28;20234;-55
2022/03/27 04:38:12;;;;;;;28.97;21.13;;;;;;;;;;2091404;28;20266;-54
2022/03/27 04:39:13;;;;;;;30.63;21.30;;;;;;;;;;2089358;28;20172;-54
2022/03/27 04:40:13;;;;;;;29.07;20.13;;;;;;;;;;2088021;28;20187;-54
2022/03/27 04:41:14;;;;;;;28.27;20.40;;;;;;;;;;2087786;28;20202;-56
2022/03/27 04:42:14;;;;;;;26.60;19.95;;;;;;;;;;2091265;28;20199;-55
2022/03/27 04:43:14;;;;;;;27.50;20.55;;;;;;;;;;2088617;28;20184;-56
2022/03/27 04:44:14;;;;;;;27.23;21.03;;;;;;;;;;2085763;28;20176;-53
2022/03/27 04:45:15;;;;;;;27.10;20.20;;;;;;;;;;2078907;28;20188;-53
2022/03/27 04:46:16;;;;;;;26.70;19.43;;;;;;;;;;2079588;28;20839;-54
2022/03/27 04:47:16;;;;;;;26.10;19.38;;;;;;;;;;2087746;28;20696;-54
2022/03/27 04:48:17;;;;;;;26.05;18.73;;;;;;;;;;2091187;28;20174;-57
2022/03/27 04:49:17;;;;;;;29.67;19.30;;;;;;;;;;2089271;28;20196;-58
2022/03/27 04:50:17;;;;;;;24.10;18.90;;;;;;;;;;2089524;28;20203;-57
2022/03/27 04:51:17;;;;;;;24.27;19.10;;;;;;;;;;2088303;28;20200;-55
2022/03/27 04:52:18;;;;;;;28.57;20.80;;;;;;;;;;2080974;28;20184;-58
2022/03/27 04:53:18;;;;;;;24.55;18.88;;;;;;;;;;2084079;28;20655;-54
2022/03/27 04:54:19;;;;;;;26.08;19.25;;;;;;;;;;2091804;28;20269;-60
2022/03/27 04:55:19;;;;;;;25.95;19.65;;;;;;;;;;2086049;28;20187;-53
2022/03/27 04:56:19;;;;;;;26.08;19.35;;;;;;;;;;2089073;28;20168;-53
2022/03/27 04:57:21;;;;;;;27.23;20.07;;;;;;;;;;2084896;28;20230;-53
2022/03/27 04:58:21;;;;;;;24.17;18.52;;;;;;;;;;2089145;28;20171;-51
2022/03/27 04:59:21;;;;;;;25.05;18.13;;;;;;;;;;2090346;28;20257;-53
2022/03/27 05:00:22;;;;;;;24.17;18.93;;;;;;;;;;2086026;28;20172;-54
2022/03/27 05:01:22;;;;;;;22.67;17.75;;;;;;;;;;2084118;28;20333;-54
2022/03/27 05:02:23;;;;;;;23.35;17.48;;;;;;;;;;2082833;28;20180;-53
2022/03/27 05:03:24;;;;;;;24.92;18.98;;;;;;;;;;2080109;28;20669;-52
2022/03/27 05:04:25;;;;;;;22.98;17.77;;;;;;;;;;2079199;28;20184;-54
2022/03/27 05:05:26;;;;;;;23.20;17.37;;;;;;;;;;2082116;28;20258;-55
2022/03/27 05:06:26;;;;;;;23.20;17.83;;;;;;;;;;2075291;28;20209;-56
2022/03/27 05:07:26;;;;;;;20.58;16.65;;;;;;;;;;2089267;28;20188;-53
2022/03/27 05:08:27;;;;;;;23.42;16.73;;;;;;;;;;2081776;28;20196;-53
2022/03/27 05:09:27;;;;;;;25.80;19.58;;;;;;;;;;2082177;28;20204;-53
2022/03/27 05:10:27;;;;;;;23.27;18.17;;;;;;;;;;2081603;28;20172;-56
2022/03/27 05:11:28;;;;;;;25.02;18.25;;;;;;;;;;2081910;28;20222;-57
2022/03/27 05:12:28;;;;;;;24.63;18.20;;;;;;;;;;2090350;28;20179;-55
2022/03/27 05:13:28;;;;;;;21.33;16.38;;;;;;;;;;2090728;28;20167;-55
2022/03/27 05:14:28;;;;;;;21.70;17.20;;;;;;;;;;2081795;28;20557;-53
2022/03/27 05:15:29;;;;;;;22.35;17.58;;;;;;;;;;2082257;28;20176;-52
2022/03/27 05:16:29;;;;;;;25.03;18.43;;;;;;;;;;2091060;28;20171;-53
2022/03/27 05:17:29;;;;;;;20.90;17.48;;;;;;;;;;2091138;28;20256;-53
2022/03/27 05:18:30;;;;;;;24.73;17.70;;;;;;;;;;2091032;28;20198;-53
2022/03/27 05:19:30;;;;;;;23.95;17.67;;;;;;;;;;2090851;28;20720;-56
2022/03/27 05:20:30;;;;;;;19.60;16.25;;;;;;;;;;2090762;28;20535;-56
2022/03/27 05:21:31;;;;;;;24.63;17.33;;;;;;;;;;2090859;28;20233;-53
2022/03/27 05:22:31;;;;;;;22.57;17.93;;;;;;;;;;2082135;28;20176;-52
2022/03/27 05:23:32;;;;;;;21.80;17.02;;;;;;;;;;2081757;28;20222;-52
2022/03/27 05:24:33;;;;;;;23.23;18.83;;;;;;;;;;2091222;28;20184;-54
2022/03/27 05:25:45;;;;;;;25.23;17.75;;;;;;;;;;2091614;28;20178;-56
2022/03/27 05:26:45;;;;;;;23.48;16.90;;;;;;;;;;2082097;28;20169;-53
2022/03/27 05:27:46;;;;;;;24.47;18.10;;;;;;;;;;2081854;28;20607;-52
2022/03/27 05:28:47;;;;;;;22.77;17.05;;;;;;;;;;2082090;28;20255;-55
2022/03/27 05:29:47;;;;;;;23.38;18.17;;;;;;;;;;2090936;28;20648;-54
2022/03/27 05:30:47;;;;;;;24.10;16.67;;;;;;;;;;2090657;28;20219;-54
2022/03/27 05:31:47;;;;;;;24.65;19.17;;;;;;;;;;2090823;28;20196;-55
2022/03/27 05:32:48;;;;;;;22.00;17.57;;;;;;;;;;2091348;28;20172;-53
2022/03/27 05:33:49;;;;;;;21.53;17.03;;;;;;;;;;2090997;28;20175;-53
2022/03/27 05:34:49;;;;;;;22.60;17.80;;;;;;;;;;2082384;28;20571;-55
2022/03/27 05:35:49;;;;;;;23.65;17.65;;;;;;;;;;2082302;28;20206;-54
2022/03/27 05:36:49;;;;;;;24.80;18.10;;;;;;;;;;2090908;28;20175;-54
2022/03/27 05:37:50;;;;;;;23.20;17.87;;;;;;;;;;2081023;28;20411;-57
2022/03/27 05:38:51;;;;;;;21.20;17.33;;;;;;;;;;2079107;28;20263;-56
2022/03/27 05:39:51;;;;;;;22.25;17.85;;;;;;;;;;2085585;28;20550;-53
2022/03/27 05:40:51;;;;;;;23.65;17.02;;;;;;;;;;2087584;28;20221;-55
2022/03/27 05:41:51;;;;;;;24.77;17.38;;;;;;;;;;2085887;28;20164;-56
2022/03/27 05:42:53;;;;;;;23.65;17.55;;;;;;;;;;2090410;28;20168;-53
2022/03/27 05:43:53;;;;;;;22.30;16.87;;;;;;;;;;2088107;28;20263;-53
2022/03/27 05:44:53;;;;;;;22.77;18.45;;;;;;;;;;2082301;28;20194;-54
2022/03/27 05:45:54;;;;;;;22.33;17.53;;;;;;;;;;2082265;28;20172;-55
2022/03/27 05:46:54;;;;;;;23.58;18.92;;;;;;;;;;2082694;28;20235;-53
2022/03/27 05:47:54;;;;;;;22.80;17.60;;;;;;;;;;2082851;28;20167;-54
2022/03/27 05:48:55;;;;;;;20.17;16.17;;;;;;;;;;2073711;28;20221;-52
2022/03/27 05:49:56;;;;;;;20.70;16.38;;;;;;;;;;2079259;28;20700;-54
2022/03/27 05:50:56;;;;;;;20.85;16.98;;;;;;;;;;2090731;28;20262;-55
2022/03/27 05:51:56;;;;;;;20.25;16.58;;;;;;;;;;2073988;28;20569;-57
2022/03/27 05:52:57;;;;;;;21.38;16.48;;;;;;;;;;2073815;28;20173;-54
2022/03/27 05:53:57;;;;;;;21.17;16.67;;;;;;;;;;2090824;28;20172;-55